sensor_id;sensor_type;location;lat;lon;timestamp;pressure;altitude;pressure_sealevel;temperature;humidity
25526;BME280;13424;48.424;11.258;2023-01-09T00:01:26;94037.13;;;8.31;74.39
25526;BME280;13424;48.424;11.258;2023-01-09T00:03:52;94037.56;;;8.02;75.31
25526;BME280;13424;48.424;11.258;2023-01-09T00:06:18;94037.66;;;8.33;74.21
25526;BME280;13424;48.424;11.258;2023-01-09T00:08:44;94050.31;;;8.05;75.77
25526;BME280;13424;48.424;11.258;2023-01-09T00:11:10;94042.97;;;8.33;75.37
25526;BME280;13424;48.424;11.258;2023-01-09T00:13:36;94046.13;;;8.25;75.11
25526;BME280;13424;48.424;11.258;2023-01-09T00:16:04;94025.97;;;8.24;74.99
25526;BME280;13424;48.424;11.258;2023-01-09T00:18:30;94025.41;;;8.27;75.55
25526;BME280;13424;48.424;11.258;2023-01-09T00:21:02;94037.88;;;8.21;75.26
25526;BME280;13424;48.424;11.258;2023-01-09T00:23:28;94020.69;;;8.44;74.60
25526;BME280;13424;48.424;11.258;2023-01-09T00:26:16;94026.50;;;8.26;75.50
25526;BME280;13424;48.424;11.258;2023-01-09T00:28:44;94017.72;;;8.15;75.78
25526;BME280;13424;48.424;11.258;2023-01-09T00:31:10;94018.84;;;8.39;75.05
25526;BME280;13424;48.424;11.258;2023-01-09T00:34:01;94017.72;;;8.15;75.97
25526;BME280;13424;48.424;11.258;2023-01-09T00:36:28;94006.28;;;8.15;76.63
25526;BME280;13424;48.424;11.258;2023-01-09T00:38:57;94009.16;;;8.03;76.92
25526;BME280;13424;48.424;11.258;2023-01-09T00:41:40;94017.63;;;7.95;77.01
25526;BME280;13424;48.424;11.258;2023-01-09T00:44:23;94019.84;;;8.18;76.33
25526;BME280;13424;48.424;11.258;2023-01-09T00:50:25;94020.94;;;8.32;75.73
25526;BME280;13424;48.424;11.258;2023-01-09T00:52:53;94016.94;;;8.30;75.29
25526;BME280;13424;48.424;11.258;2023-01-09T00:55:20;94010.50;;;8.10;75.93
25526;BME280;13424;48.424;11.258;2023-01-09T00:57:46;94027.59;;;8.45;75.72
25526;BME280;13424;48.424;11.258;2023-01-09T01:00:12;94020.97;;;8.37;75.73
25526;BME280;13424;48.424;11.258;2023-01-09T01:02:38;94023.06;;;8.35;75.90
25526;BME280;13424;48.424;11.258;2023-01-09T01:05:04;94023.06;;;8.35;75.29
25526;BME280;13424;48.424;11.258;2023-01-09T01:07:49;94019.88;;;8.33;75.49
25526;BME280;13424;48.424;11.258;2023-01-09T01:10:20;94022.28;;;8.35;75.85
25526;BME280;13424;48.424;11.258;2023-01-09T01:12:47;94025.50;;;8.67;74.46
25526;BME280;13424;48.424;11.258;2023-01-09T01:15:14;94029.47;;;8.50;75.19
25526;BME280;13424;48.424;11.258;2023-01-09T01:17:40;94037.47;;;8.55;74.83
25526;BME280;13424;48.424;11.258;2023-01-09T01:20:13;94036.31;;;8.15;75.96
25526;BME280;13424;48.424;11.258;2023-01-09T01:22:40;94036.53;;;8.13;76.14
25526;BME280;13424;48.424;11.258;2023-01-09T01:25:10;94043.47;;;8.15;76.23
25526;BME280;13424;48.424;11.258;2023-01-09T01:27:43;94038.63;;;8.01;76.43
25526;BME280;13424;48.424;11.258;2023-01-09T01:30:12;94030.69;;;8.01;77.12
25526;BME280;13424;48.424;11.258;2023-01-09T01:32:39;94030.69;;;8.11;76.93
25526;BME280;13424;48.424;11.258;2023-01-09T01:35:06;94026.41;;;7.90;77.68
25526;BME280;13424;48.424;11.258;2023-01-09T01:37:34;94014.94;;;7.79;77.90
25526;BME280;13424;48.424;11.258;2023-01-09T01:40:00;94014.66;;;7.76;77.81
25526;BME280;13424;48.424;11.258;2023-01-09T01:42:26;94009.41;;;7.91;78.15
25526;BME280;13424;48.424;11.258;2023-01-09T01:50:23;94011.03;;;8.02;77.17
25526;BME280;13424;48.424;11.258;2023-01-09T01:53:17;94012.13;;;8.27;76.68
25526;BME280;13424;48.424;11.258;2023-01-09T01:56:31;94012.72;;;8.39;76.69
25526;BME280;13424;48.424;11.258;2023-01-09T02:01:44;94013.97;;;8.21;77.51
25526;BME280;13424;48.424;11.258;2023-01-09T02:04:12;94020.34;;;8.10;78.05
25526;BME280;13424;48.424;11.258;2023-01-09T02:06:38;94011.59;;;8.15;77.89
25526;BME280;13424;48.424;11.258;2023-01-09T02:09:05;94006.28;;;8.15;77.91
25526;BME280;13424;48.424;11.258;2023-01-09T02:11:31;94006.78;;;8.01;78.73
25526;BME280;13424;48.424;11.258;2023-01-09T02:13:58;94008.66;;;8.11;77.19
25526;BME280;13424;48.424;11.258;2023-01-09T02:16:58;94006.00;;;8.21;77.07
25526;BME280;13424;48.424;11.258;2023-01-09T02:20:13;93997.81;;;8.23;77.05
25526;BME280;13424;48.424;11.258;2023-01-09T02:32:23;93978.19;;;8.59;76.07
25526;BME280;13424;48.424;11.258;2023-01-09T02:37:43;93972.81;;;8.29;77.03
25526;BME280;13424;48.424;11.258;2023-01-09T02:43:38;93958.25;;;8.52;76.34
25526;BME280;13424;48.424;11.258;2023-01-09T02:46:05;93972.63;;;8.71;75.22
25526;BME280;13424;48.424;11.258;2023-01-09T02:48:40;93974.19;;;8.67;75.70
25526;BME280;13424;48.424;11.258;2023-01-09T02:51:18;93969.94;;;8.35;77.03
25526;BME280;13424;48.424;11.258;2023-01-09T02:57:20;93964.34;;;8.32;77.49
25526;BME280;13424;48.424;11.258;2023-01-09T03:00:03;93957.69;;;8.14;78.98
25526;BME280;13424;48.424;11.258;2023-01-09T03:06:49;93963.00;;;8.34;78.09
25526;BME280;13424;48.424;11.258;2023-01-09T03:08:55;93969.44;;;8.69;76.27
25526;BME280;13424;48.424;11.258;2023-01-09T03:11:24;93966.50;;;8.60;76.41
25526;BME280;13424;48.424;11.258;2023-01-09T03:13:55;93966.75;;;8.74;76.39
25526;BME280;13424;48.424;11.258;2023-01-09T03:16:34;93963.56;;;8.52;77.06
25526;BME280;13424;48.424;11.258;2023-01-09T03:19:01;93968.13;;;8.61;76.96
25526;BME280;13424;48.424;11.258;2023-01-09T03:21:28;93970.22;;;8.49;77.47
25526;BME280;13424;48.424;11.258;2023-01-09T03:23:58;93965.69;;;8.60;77.69
25526;BME280;13424;48.424;11.258;2023-01-09T03:26:24;93973.94;;;8.79;77.08
25526;BME280;13424;48.424;11.258;2023-01-09T03:28:50;93969.16;;;8.76;77.27
25526;BME280;13424;48.424;11.258;2023-01-09T03:31:17;93967.03;;;8.52;78.21
25526;BME280;13424;48.424;11.258;2023-01-09T03:33:43;93969.69;;;8.78;77.21
25526;BME280;13424;48.424;11.258;2023-01-09T03:36:10;93970.94;;;8.04;79.87
25526;BME280;13424;48.424;11.258;2023-01-09T03:38:37;93975.81;;;8.78;77.28
25526;BME280;13424;48.424;11.258;2023-01-09T03:41:03;93983.78;;;8.88;76.44
25526;BME280;13424;48.424;11.258;2023-01-09T03:43:29;93975.00;;;8.83;76.33
25526;BME280;13424;48.424;11.258;2023-01-09T03:45:55;93973.69;;;8.80;76.86
25526;BME280;13424;48.424;11.258;2023-01-09T03:48:22;93978.19;;;8.59;78.08
25526;BME280;13424;48.424;11.258;2023-01-09T03:50:49;93985.66;;;8.62;78.42
25526;BME280;13424;48.424;11.258;2023-01-09T03:53:15;93989.38;;;8.56;79.01
25526;BME280;13424;48.424;11.258;2023-01-09T03:55:46;93983.22;;;8.61;78.68
25526;BME280;13424;48.424;11.258;2023-01-09T03:58:13;93989.91;;;8.79;78.30
25526;BME280;13424;48.424;11.258;2023-01-09T04:00:46;93978.72;;;8.72;77.96
25526;BME280;13424;48.424;11.258;2023-01-09T04:03:18;93996.81;;;8.64;78.62
25526;BME280;13424;48.424;11.258;2023-01-09T04:05:46;93997.59;;;8.80;78.42
25526;BME280;13424;48.424;11.258;2023-01-09T04:08:12;93997.31;;;8.66;78.73
25526;BME280;13424;48.424;11.258;2023-01-09T04:10:38;94006.91;;;8.57;79.47
25526;BME280;13424;48.424;11.258;2023-01-09T04:13:04;94011.97;;;8.64;78.82
25526;BME280;13424;48.424;11.258;2023-01-09T04:15:30;94011.16;;;8.58;78.98
25526;BME280;13424;48.424;11.258;2023-01-09T04:17:56;94021.78;;;8.58;79.47
25526;BME280;13424;48.424;11.258;2023-01-09T04:20:22;94024.97;;;8.60;79.29
25526;BME280;13424;48.424;11.258;2023-01-09T04:22:47;94032.41;;;8.74;79.45
25526;BME280;13424;48.424;11.258;2023-01-09T04:25:13;94030.28;;;8.55;80.27
25526;BME280;13424;48.424;11.258;2023-01-09T04:27:39;94041.47;;;8.62;80.19
25526;BME280;13424;48.424;11.258;2023-01-09T04:30:09;94041.97;;;8.64;80.07
25526;BME280;13424;48.424;11.258;2023-01-09T04:32:34;94041.94;;;8.44;80.94
25526;BME280;13424;48.424;11.258;2023-01-09T04:35:00;94047.00;;;8.51;80.81
25526;BME280;13424;48.424;11.258;2023-01-09T04:37:26;94051.56;;;8.65;80.16
25526;BME280;13424;48.424;11.258;2023-01-09T04:39:52;94056.25;;;8.33;81.24
25526;BME280;13424;48.424;11.258;2023-01-09T04:43:15;94057.94;;;8.54;81.22
25526;BME280;13424;48.424;11.258;2023-01-09T04:45:41;94052.84;;;8.43;82.32
25526;BME280;13424;48.424;11.258;2023-01-09T04:48:06;94064.78;;;8.45;82.08
25526;BME280;13424;48.424;11.258;2023-01-09T04:50:32;94072.81;;;8.65;81.61
25526;BME280;13424;48.424;11.258;2023-01-09T04:52:58;94066.69;;;8.55;82.75
25526;BME280;13424;48.424;11.258;2023-01-09T04:55:24;94072.78;;;8.60;82.61
25526;BME280;13424;48.424;11.258;2023-01-09T04:57:50;94069.09;;;8.66;81.91
25526;BME280;13424;48.424;11.258;2023-01-09T05:00:15;94079.22;;;8.70;82.39
25526;BME280;13424;48.424;11.258;2023-01-09T05:02:41;94085.00;;;8.51;82.89
25526;BME280;13424;48.424;11.258;2023-01-09T05:05:08;94093.81;;;8.92;81.86
25526;BME280;13424;48.424;11.258;2023-01-09T05:07:34;94098.06;;;8.83;81.97
25526;BME280;13424;48.424;11.258;2023-01-09T05:10:01;94095.97;;;8.85;81.55
25526;BME280;13424;48.424;11.258;2023-01-09T05:12:27;94099.16;;;8.98;82.30
25526;BME280;13424;48.424;11.258;2023-01-09T05:14:52;94097.84;;;8.85;82.15
25526;BME280;13424;48.424;11.258;2023-01-09T05:17:55;94102.06;;;8.91;81.89
25526;BME280;13424;48.424;11.258;2023-01-09T05:20:20;94117.75;;;8.92;82.28
25526;BME280;13424;48.424;11.258;2023-01-09T05:22:46;94112.19;;;8.99;82.65
25526;BME280;13424;48.424;11.258;2023-01-09T05:25:12;94114.84;;;8.94;82.86
25526;BME280;13424;48.424;11.258;2023-01-09T05:27:38;94131.31;;;8.81;83.61
25526;BME280;13424;48.424;11.258;2023-01-09T05:34:10;94139.31;;;8.96;83.37
25526;BME280;13424;48.424;11.258;2023-01-09T05:36:36;94152.09;;;8.94;84.61
25526;BME280;13424;48.424;11.258;2023-01-09T05:39:02;94156.34;;;9.05;83.85
25526;BME280;13424;48.424;11.258;2023-01-09T05:41:28;94151.25;;;8.78;85.43
25526;BME280;13424;48.424;11.258;2023-01-09T05:44:00;94159.47;;;8.77;86.16
25526;BME280;13424;48.424;11.258;2023-01-09T05:46:25;94165.03;;;8.65;86.40
25526;BME280;13424;48.424;11.258;2023-01-09T05:48:51;94169.03;;;8.67;86.77
25526;BME280;13424;48.424;11.258;2023-01-09T05:51:17;94168.41;;;8.40;86.29
25526;BME280;13424;48.424;11.258;2023-01-09T05:53:43;94168.69;;;8.38;86.07
25526;BME280;13424;48.424;11.258;2023-01-09T05:56:09;94177.88;;;8.26;84.80
25526;BME280;13424;48.424;11.258;2023-01-09T05:58:34;94161.69;;;8.22;84.89
25526;BME280;13424;48.424;11.258;2023-01-09T06:05:07;94192.09;;;8.52;82.88
25526;BME280;13424;48.424;11.258;2023-01-09T06:07:33;94202.59;;;8.26;84.16
25526;BME280;13424;48.424;11.258;2023-01-09T06:10:04;94203.72;;;8.35;84.07
25526;BME280;13424;48.424;11.258;2023-01-09T06:12:29;94212.72;;;8.34;83.87
25526;BME280;13424;48.424;11.258;2023-01-09T06:14:55;94194.19;;;8.39;83.51
25526;BME280;13424;48.424;11.258;2023-01-09T06:17:21;94198.47;;;8.46;83.72
25526;BME280;13424;48.424;11.258;2023-01-09T06:19:47;94213.13;;;8.58;83.84
25526;BME280;13424;48.424;11.258;2023-01-09T06:22:13;94207.47;;;8.39;83.51
25526;BME280;13424;48.424;11.258;2023-01-09T06:24:38;94213.13;;;8.58;83.60
25526;BME280;13424;48.424;11.258;2023-01-09T06:27:04;94209.09;;;8.46;84.27
25526;BME280;13424;48.424;11.258;2023-01-09T06:29:31;94210.44;;;8.48;83.64
25526;BME280;13424;48.424;11.258;2023-01-09T06:32:03;94202.94;;;8.40;84.25
25526;BME280;13424;48.424;11.258;2023-01-09T06:34:29;94220.34;;;8.16;84.75
25526;BME280;13424;48.424;11.258;2023-01-09T06:36:54;94223.47;;;8.07;84.99
25526;BME280;13424;48.424;11.258;2023-01-09T06:39:20;94244.63;;;7.97;85.56
25526;BME280;13424;48.424;11.258;2023-01-09T06:41:46;94257.53;;;7.46;87.54
25526;BME280;13424;48.424;11.258;2023-01-09T06:44:12;94256.66;;;7.36;87.34
25526;BME280;13424;48.424;11.258;2023-01-09T06:46:38;94269.59;;;7.32;87.38
25526;BME280;13424;48.424;11.258;2023-01-09T06:49:04;94276.19;;;7.03;88.62
25526;BME280;13424;48.424;11.258;2023-01-09T06:51:30;94267.41;;;6.97;89.42
25526;BME280;13424;48.424;11.258;2023-01-09T06:53:55;94273.81;;;7.28;87.34
25526;BME280;13424;48.424;11.258;2023-01-09T06:56:21;94275.59;;;6.95;88.78
25526;BME280;13424;48.424;11.258;2023-01-09T06:58:47;94279.56;;;7.20;87.90
25526;BME280;13424;48.424;11.258;2023-01-09T07:01:13;94271.72;;;7.03;87.35
25526;BME280;13424;48.424;11.258;2023-01-09T07:03:39;94288.28;;;6.93;88.39
25526;BME280;13424;48.424;11.258;2023-01-09T07:06:05;94306.59;;;7.44;85.70
25526;BME280;13424;48.424;11.258;2023-01-09T07:08:31;94311.56;;;7.35;85.56
25526;BME280;13424;48.424;11.258;2023-01-09T07:10:58;94320.94;;;7.75;84.66
25526;BME280;13424;48.424;11.258;2023-01-09T07:13:24;94313.91;;;7.59;84.43
25526;BME280;13424;48.424;11.258;2023-01-09T07:15:50;94326.72;;;7.72;84.84
25526;BME280;13424;48.424;11.258;2023-01-09T07:18:18;94333.16;;;7.49;84.95
25526;BME280;13424;48.424;11.258;2023-01-09T07:20:44;94335.31;;;7.52;84.79
25526;BME280;13424;48.424;11.258;2023-01-09T07:23:11;94344.88;;;7.53;84.38
25526;BME280;13424;48.424;11.258;2023-01-09T07:25:46;94346.56;;;7.64;84.74
25526;BME280;13424;48.424;11.258;2023-01-09T07:28:12;94345.97;;;7.57;84.43
25526;BME280;13424;48.424;11.258;2023-01-09T07:30:37;94353.28;;;7.45;84.49
25526;BME280;13424;48.424;11.258;2023-01-09T07:33:03;94357.81;;;7.49;84.79
25526;BME280;13424;48.424;11.258;2023-01-09T07:35:29;94356.22;;;7.48;84.72
25526;BME280;13424;48.424;11.258;2023-01-09T07:37:55;94361.50;;;7.43;85.45
25526;BME280;13424;48.424;11.258;2023-01-09T07:40:21;94369.50;;;7.48;83.97
25526;BME280;13424;48.424;11.258;2023-01-09T07:42:47;94377.16;;;7.72;83.39
25526;BME280;13424;48.424;11.258;2023-01-09T07:45:13;94375.81;;;7.69;83.02
25526;BME280;13424;48.424;11.258;2023-01-09T07:47:40;94386.41;;;7.96;82.79
25526;BME280;13424;48.424;11.258;2023-01-09T07:50:07;94388.81;;;7.98;82.18
25526;BME280;13424;48.424;11.258;2023-01-09T07:52:33;94383.63;;;7.81;82.11
25526;BME280;13424;48.424;11.258;2023-01-09T07:54:59;94393.16;;;7.77;82.22
25526;BME280;13424;48.424;11.258;2023-01-09T07:57:25;94402.44;;;7.79;82.43
25526;BME280;13424;48.424;11.258;2023-01-09T07:59:51;94409.47;;;7.64;82.41
25526;BME280;13424;48.424;11.258;2023-01-09T08:02:16;94411.94;;;7.48;82.66
25526;BME280;13424;48.424;11.258;2023-01-09T08:04:42;94417.22;;;7.70;82.15
25526;BME280;13424;48.424;11.258;2023-01-09T08:07:08;94412.22;;;7.74;82.26
25526;BME280;13424;48.424;11.258;2023-01-09T08:09:34;94410.06;;;7.71;82.13
25526;BME280;13424;48.424;11.258;2023-01-09T08:12:00;94407.56;;;7.59;82.34
25526;BME280;13424;48.424;11.258;2023-01-09T08:14:25;94407.47;;;7.76;82.51
25526;BME280;13424;48.424;11.258;2023-01-09T08:16:54;94409.34;;;7.80;82.05
25526;BME280;13424;48.424;11.258;2023-01-09T08:19:20;94408.47;;;7.70;82.02
25526;BME280;13424;48.424;11.258;2023-01-09T08:21:46;94416.59;;;7.85;81.74
25526;BME280;13424;48.424;11.258;2023-01-09T08:24:12;94419.66;;;7.99;81.31
25526;BME280;13424;48.424;11.258;2023-01-09T08:26:37;94402.91;;;7.98;80.54
25526;BME280;13424;48.424;11.258;2023-01-09T08:29:03;94407.16;;;7.99;80.00
25526;BME280;13424;48.424;11.258;2023-01-09T08:35:12;94422.25;;;7.94;79.64
25526;BME280;13424;48.424;11.258;2023-01-09T08:37:37;94418.69;;;7.83;79.99
25526;BME280;13424;48.424;11.258;2023-01-09T08:40:04;94422.34;;;7.77;79.48
25526;BME280;13424;48.424;11.258;2023-01-09T08:42:30;94411.66;;;7.72;79.54
25526;BME280;13424;48.424;11.258;2023-01-09T08:45:14;94432.50;;;7.85;79.16
25526;BME280;13424;48.424;11.258;2023-01-09T08:47:58;94438.84;;;8.11;78.29
25526;BME280;13424;48.424;11.258;2023-01-09T08:50:24;94449.13;;;7.75;79.05
25526;BME280;13424;48.424;11.258;2023-01-09T08:53:37;94440.56;;;7.68;80.07
25526;BME280;13424;48.424;11.258;2023-01-09T08:56:03;94441.81;;;7.61;80.01
25526;BME280;13424;48.424;11.258;2023-01-09T08:58:38;94441.69;;;7.50;80.69
25526;BME280;13424;48.424;11.258;2023-01-09T09:01:06;94442.91;;;7.65;80.55
25526;BME280;13424;48.424;11.258;2023-01-09T09:03:32;94439.94;;;7.83;79.81
25526;BME280;13424;48.424;11.258;2023-01-09T09:05:58;94432.91;;;7.72;79.73
25526;BME280;13424;48.424;11.258;2023-01-09T09:08:24;94434.94;;;7.65;79.47
25526;BME280;13424;48.424;11.258;2023-01-09T09:10:49;94436.03;;;7.91;79.59
25526;BME280;13424;48.424;11.258;2023-01-09T09:13:15;94437.22;;;7.78;79.02
25526;BME280;13424;48.424;11.258;2023-01-09T09:15:41;94445.34;;;7.44;78.98
25526;BME280;13424;48.424;11.258;2023-01-09T09:18:07;94443.41;;;7.62;78.47
25526;BME280;13424;48.424;11.258;2023-01-09T09:20:36;94461.88;;;7.51;78.04
25526;BME280;13424;48.424;11.258;2023-01-09T09:23:03;94461.63;;;7.75;77.74
25526;BME280;13424;48.424;11.258;2023-01-09T09:25:29;94460.13;;;7.84;77.60
25526;BME280;13424;48.424;11.258;2023-01-09T09:28:32;94449.38;;;7.74;76.57
25526;BME280;13424;48.424;11.258;2023-01-09T09:30:58;94446.41;;;7.70;76.56
25526;BME280;13424;48.424;11.258;2023-01-09T09:33:23;94449.50;;;7.84;76.40
25526;BME280;13424;48.424;11.258;2023-01-09T09:35:49;94448.41;;;7.58;75.76
25526;BME280;13424;48.424;11.258;2023-01-09T09:38:15;94453.41;;;7.76;75.48
25526;BME280;13424;48.424;11.258;2023-01-09T09:55:39;94458.72;;;7.54;73.77
25526;BME280;13424;48.424;11.258;2023-01-09T10:00:56;94467.72;;;7.53;74.42
25526;BME280;13424;48.424;11.258;2023-01-09T10:06:14;94453.31;;;7.44;74.28
25526;BME280;13424;48.424;11.258;2023-01-09T10:12:58;94453.91;;;7.51;74.06
25526;BME280;13424;48.424;11.258;2023-01-09T10:15:43;94453.13;;;7.51;74.36
25526;BME280;13424;48.424;11.258;2023-01-09T10:18:16;94459.25;;;7.56;73.50
25526;BME280;13424;48.424;11.258;2023-01-09T10:21:15;94460.38;;;7.82;73.59
25526;BME280;13424;48.424;11.258;2023-01-09T10:24:01;94453.03;;;7.95;72.90
25526;BME280;13424;48.424;11.258;2023-01-09T10:26:45;94458.97;;;7.75;72.26
25526;BME280;13424;48.424;11.258;2023-01-09T10:32:06;94456.34;;;7.80;72.74
25526;BME280;13424;48.424;11.258;2023-01-09T10:37:32;94453.66;;;8.02;72.92
25526;BME280;13424;48.424;11.258;2023-01-09T10:40:34;94465.97;;;8.40;72.56
25526;BME280;13424;48.424;11.258;2023-01-09T10:45:56;94461.34;;;8.03;71.39
25526;BME280;13424;48.424;11.258;2023-01-09T10:48:31;94459.63;;;8.14;70.91
25526;BME280;13424;48.424;11.258;2023-01-09T10:50:59;94462.16;;;8.31;71.10
25526;BME280;13424;48.424;11.258;2023-01-09T10:53:34;94462.78;;;8.38;71.10
25526;BME280;13424;48.424;11.258;2023-01-09T10:56:32;94461.34;;;8.57;70.10
25526;BME280;13424;48.424;11.258;2023-01-09T10:58:59;94461.84;;;8.91;69.90
25526;BME280;13424;48.424;11.258;2023-01-09T11:01:29;94464.69;;;8.80;69.62
25526;BME280;13424;48.424;11.258;2023-01-09T11:03:56;94457.72;;;8.74;69.72
25526;BME280;13424;48.424;11.258;2023-01-09T11:06:45;94462.94;;;8.58;69.47
25526;BME280;13424;48.424;11.258;2023-01-09T11:09:12;94451.13;;;8.44;70.52
25526;BME280;13424;48.424;11.258;2023-01-09T11:11:40;94458.56;;;8.42;70.71
25526;BME280;13424;48.424;11.258;2023-01-09T11:16:56;94461.34;;;8.57;70.24
25526;BME280;13424;48.424;11.258;2023-01-09T11:19:23;94457.19;;;9.09;69.95
25526;BME280;13424;48.424;11.258;2023-01-09T11:21:49;94453.84;;;8.86;69.46
25526;BME280;13424;48.424;11.258;2023-01-09T11:29:37;94446.97;;;8.95;68.54
25526;BME280;13424;48.424;11.258;2023-01-09T11:32:03;94446.97;;;8.95;68.75
25526;BME280;13424;48.424;11.258;2023-01-09T11:34:33;94438.09;;;8.80;68.85
25526;BME280;13424;48.424;11.258;2023-01-09T11:37:09;94442.25;;;8.65;69.60
25526;BME280;13424;48.424;11.258;2023-01-09T11:39:37;94447.50;;;8.55;69.17
25526;BME280;13424;48.424;11.258;2023-01-09T11:42:18;94446.03;;;8.75;68.77
25526;BME280;13424;48.424;11.258;2023-01-09T11:44:44;94445.59;;;8.88;68.88
25526;BME280;13424;48.424;11.258;2023-01-09T11:47:34;94446.69;;;8.92;68.43
25526;BME280;13424;48.424;11.258;2023-01-09T11:50:27;94447.78;;;8.96;67.95
25526;BME280;13424;48.424;11.258;2023-01-09T11:55:38;94448.66;;;9.12;67.85
25526;BME280;13424;48.424;11.258;2023-01-09T11:58:04;94451.69;;;9.26;67.11
25526;BME280;13424;48.424;11.258;2023-01-09T12:00:46;94456.72;;;9.27;67.29
25526;BME280;13424;48.424;11.258;2023-01-09T12:09:23;94467.16;;;9.39;65.97
25526;BME280;13424;48.424;11.258;2023-01-09T12:12:03;94456.38;;;9.71;65.69
25526;BME280;13424;48.424;11.258;2023-01-09T12:15:23;94470.00;;;9.17;67.43
25526;BME280;13424;48.424;11.258;2023-01-09T12:18:34;94475.13;;;9.34;67.14
25526;BME280;13424;48.424;11.258;2023-01-09T12:21:14;94466.44;;;9.54;66.87
25526;BME280;13424;48.424;11.258;2023-01-09T12:24:23;94474.22;;;9.70;65.07
25526;BME280;13424;48.424;11.258;2023-01-09T12:28:10;94463.38;;;9.97;65.64
25526;BME280;13424;48.424;11.258;2023-01-09T12:36:09;94462.97;;;9.53;65.28
25526;BME280;13424;48.424;11.258;2023-01-09T12:38:58;94468.38;;;9.73;66.39
25526;BME280;13424;48.424;11.258;2023-01-09T12:42:12;94461.47;;;9.72;64.78
25526;BME280;13424;48.424;11.258;2023-01-09T12:57:13;94466.97;;;9.56;65.00
25526;BME280;13424;48.424;11.258;2023-01-09T12:59:56;94463.91;;;9.27;65.48
25526;BME280;13424;48.424;11.258;2023-01-09T13:02:41;94470.06;;;9.37;64.21
25526;BME280;13424;48.424;11.258;2023-01-09T13:05:25;94467.75;;;9.51;65.21
25526;BME280;13424;48.424;11.258;2023-01-09T13:10:48;94466.72;;;9.62;64.65
25526;BME280;13424;48.424;11.258;2023-01-09T13:13:25;94470.47;;;9.71;64.80
25526;BME280;13424;48.424;11.258;2023-01-09T13:16:00;94465.94;;;9.62;64.85
25526;BME280;13424;48.424;11.258;2023-01-09T13:21:18;94468.41;;;9.84;65.14
25526;BME280;13424;48.424;11.258;2023-01-09T13:24:50;94464.00;;;9.47;64.82
25526;BME280;13424;48.424;11.258;2023-01-09T13:27:00;94450.03;;;9.19;65.31
25526;BME280;13424;48.424;11.258;2023-01-09T13:29:33;94459.47;;;9.42;65.31
25526;BME280;13424;48.424;11.258;2023-01-09T13:32:32;94464.53;;;9.44;65.25
25526;BME280;13424;48.424;11.258;2023-01-09T13:35:01;94454.72;;;9.55;64.79
25526;BME280;13424;48.424;11.258;2023-01-09T13:37:33;94455.41;;;9.25;65.79
25526;BME280;13424;48.424;11.258;2023-01-09T13:40:05;94461.00;;;9.28;65.56
25526;BME280;13424;48.424;11.258;2023-01-09T13:42:32;94462.81;;;9.17;65.38
25526;BME280;13424;48.424;11.258;2023-01-09T13:50:46;94459.78;;;9.51;65.49
25526;BME280;13424;48.424;11.258;2023-01-09T13:58:55;94446.41;;;9.36;64.57
25526;BME280;13424;48.424;11.258;2023-01-09T14:06:36;94439.59;;;9.70;63.97
25526;BME280;13424;48.424;11.258;2023-01-09T14:09:21;94450.97;;;9.50;63.95
25526;BME280;13424;48.424;11.258;2023-01-09T14:11:48;94447.09;;;9.16;65.00
25526;BME280;13424;48.424;11.258;2023-01-09T14:14:29;94451.75;;;9.46;65.22
25526;BME280;13424;48.424;11.258;2023-01-09T14:17:00;94451.34;;;9.12;64.74
25526;BME280;13424;48.424;11.258;2023-01-09T14:19:37;94454.03;;;9.17;65.18
25526;BME280;13424;48.424;11.258;2023-01-09T14:22:05;94453.84;;;9.34;65.49
25526;BME280;13424;48.424;11.258;2023-01-09T14:24:43;94447.97;;;9.32;65.21
25526;BME280;13424;48.424;11.258;2023-01-09T14:38:53;94464.00;;;9.47;64.34
25526;BME280;13424;48.424;11.258;2023-01-09T14:44:26;94470.31;;;9.31;65.06
25526;BME280;13424;48.424;11.258;2023-01-09T14:46:53;94458.41;;;8.96;64.90
25526;BME280;13424;48.424;11.258;2023-01-09T14:50:24;94470.25;;;9.20;64.91
25526;BME280;13424;48.424;11.258;2023-01-09T14:52:58;94476.38;;;8.79;65.09
25526;BME280;13424;48.424;11.258;2023-01-09T14:55:58;94481.97;;;8.77;65.13
25526;BME280;13424;48.424;11.258;2023-01-09T14:58:30;94476.03;;;9.07;64.59
25526;BME280;13424;48.424;11.258;2023-01-09T15:01:12;94481.13;;;9.09;64.81
25526;BME280;13424;48.424;11.258;2023-01-09T15:03:48;94486.38;;;8.66;65.34
25526;BME280;13424;48.424;11.258;2023-01-09T15:06:43;94504.50;;;8.70;66.11
25526;BME280;13424;48.424;11.258;2023-01-09T15:09:44;94504.31;;;8.81;65.50
25526;BME280;13424;48.424;11.258;2023-01-09T15:12:19;94505.13;;;8.82;66.42
25526;BME280;13424;48.424;11.258;2023-01-09T15:14:51;94511.88;;;8.62;68.42
25526;BME280;13424;48.424;11.258;2023-01-09T15:17:25;94511.88;;;8.08;71.43
25526;BME280;13424;48.424;11.258;2023-01-09T15:19:51;94505.31;;;7.67;74.28
25526;BME280;13424;48.424;11.258;2023-01-09T15:22:35;94497.09;;;7.69;73.77
25526;BME280;13424;48.424;11.258;2023-01-09T15:27:51;94496.81;;;8.14;72.71
25526;BME280;13424;48.424;11.258;2023-01-09T15:30:29;94500.09;;;7.99;72.72
25526;BME280;13424;48.424;11.258;2023-01-09T15:33:11;94503.84;;;8.03;73.34
25526;BME280;13424;48.424;11.258;2023-01-09T15:35:42;94498.25;;;8.00;73.23
25526;BME280;13424;48.424;11.258;2023-01-09T15:38:15;94499.94;;;8.11;73.03
25526;BME280;13424;48.424;11.258;2023-01-09T15:40:42;94504.34;;;8.00;72.12
25526;BME280;13424;48.424;11.258;2023-01-09T15:43:16;94509.16;;;8.03;71.87
25526;BME280;13424;48.424;11.258;2023-01-09T15:45:43;94516.56;;;8.01;72.09
25526;BME280;13424;48.424;11.258;2023-01-09T15:50:44;94516.34;;;7.81;71.53
25526;BME280;13424;48.424;11.258;2023-01-09T15:53:14;94529.75;;;7.91;72.33
25526;BME280;13424;48.424;11.258;2023-01-09T15:55:41;94532.63;;;7.90;72.33
25526;BME280;13424;48.424;11.258;2023-01-09T15:58:34;94546.97;;;7.67;74.46
25526;BME280;13424;48.424;11.258;2023-01-09T16:05:12;94551.16;;;8.06;74.30
25526;BME280;13424;48.424;11.258;2023-01-09T16:07:46;94552.75;;;8.07;73.81